Flight Track Log - Related Links

Times and Time Zones

All times are in EDT time to prevent confusion due to time zone crossing. See the UAL4550 flight status page for this flight to view local times or setup timezone preferences in your user account.

Time Position Orientation Groundspeed Altitude Reporting Facility
EDT Latitude Longitude Course Direction KTS MPH feet Rate Location/Type
21:03 29.9578 -95.3464 36° Northeast 185 213 1,100  Level Houston Center
21:03 29.9603 -95.3750 276° West 173 199 2,900 2,471 Climbing Houston Center
21:04 29.9794 -95.3669 20° North 183 211 3,900 2,786 Climbing Houston Center
21:04 30.0042 -95.3481 33° Northeast 210 242 5,500 2,361 Climbing Houston Center
21:05 30.0275 -95.3286 36° Northeast 211 243 6,300 2,258 Climbing Houston Center
21:06 30.3223 -95.0621 35° Northeast  Level FlightAware Approximate
21:06 30.0861 -95.2783 37° Northeast 250 288 9,000  Level Houston Center
21:07 30.4069 -94.9931 41° Northeast  Level FlightAware Approximate
21:07 30.1489 -95.2258 36° Northeast 271 312 11,400  Level Houston Center
21:08 30.4910 -94.9298 36° Northeast  Level FlightAware Approximate
21:08 30.2197 -95.1658 36° Northeast 302 348 13,400  Level Houston Center
21:09 30.2947 -95.1000 37° Northeast 330 380 15,700 2,146 Climbing Houston Center
21:10 30.3711 -95.0364 36° Northeast 336 387 17,800 2,390 Climbing Houston Center
21:11 30.4497 -94.9350 48° Northeast 348 400 20,600 2,390 Climbing Houston Center
21:12 30.5156 -94.8453 50° Northeast 359 413 22,700 1,171 Climbing Houston Center
21:13 30.5883 -94.7464 49° Northeast 394 453 23,000 146 Climbing Houston Center
21:14 30.6722 -94.6317 50° Northeast 454 522 23,000  Level Houston Center
21:15 30.7606 -94.5122 49° Northeast 485 558 23,000  Level Houston Center
21:16 30.8517 -94.3881 49° Northeast 501 577 23,000  Level Houston Center
21:17 30.9603 -94.2392 50° Northeast 505 581 23,000  Level Houston Center
21:18 31.0481 -94.1169 50° Northeast 497 572 23,000  Level Houston Center
21:19 31.1386 -93.9939 49° Northeast 499 574 23,000  Level Houston Center
21:20 31.2294 -93.8678 50° Northeast 496 571 23,000  Level Houston Center
21:21 31.3158 -93.7475 50° Northeast 496 571 23,000  Level Houston Center
21:22 31.4036 -93.6242 50° Northeast 496 571 23,000  Level Houston Center
21:23 31.4925 -93.5014 50° Northeast 494 568 23,000  Level Houston Center
21:24 31.5814 -93.3778 50° Northeast 495 570 23,000  Level Houston Center
21:25 31.6697 -93.2517 51° Northeast 496 571 23,000  Level Houston Center
21:26 31.7769 -93.1011 50° Northeast 498 573 23,000 -829 Level Houston Center
21:27 31.8642 -92.9764 51° Northeast 490 564 21,300 -2,195 Descending Houston Center
21:28 31.9456 -92.8597 51° Northeast 465 535 18,500 -2,607 Descending Houston Center
21:29 32.0236 -92.7489 50° Northeast 442 509 16,000 -2,049 Descending Houston Center
21:30 32.0964 -92.6442 51° Northeast 414 476 14,300 -1,512 Descending Houston Center
21:31 32.1656 -92.5453 50° Northeast 394 453 12,900 -1,426 Descending Houston Center
21:32 32.2217 -92.4608 52° Northeast 326 375 11,400 -1,951 Descending Houston Center
21:33 32.2714 -92.3828 53° Northeast 304 350 8,900 -2,419 Descending Houston Center

Login

Don't have an account? Register now (free) for customized features, flight alerts, and more!